createdAt,value
2018-07-17T00:00:24.714Z,0
2018-07-17T00:01:24.249Z,0
2018-07-17T00:02:24.498Z,0
2018-07-17T00:03:24.482Z,0
2018-07-17T00:04:24.543Z,0
2018-07-17T00:05:24.199Z,0
2018-07-17T00:06:24.188Z,0
2018-07-17T00:07:24.441Z,0
2018-07-17T00:08:24.439Z,0
2018-07-17T00:09:24.417Z,0
2018-07-17T00:10:24.407Z,0
2018-07-17T00:11:24.664Z,0
2018-07-17T00:12:24.386Z,0
2018-07-17T00:13:24.390Z,0
2018-07-17T00:14:24.111Z,0
2018-07-17T00:15:24.359Z,0
2018-07-17T00:16:24.090Z,0
2018-07-17T00:17:24.349Z,0
2018-07-17T00:18:24.597Z,0
2018-07-17T00:19:24.317Z,0
2018-07-17T00:20:24.310Z,0
2018-07-17T00:21:24.039Z,0
2018-07-17T00:22:24.557Z,0
2018-07-17T00:23:24.285Z,0
2018-07-17T00:24:24.266Z,0
2018-07-17T00:25:24.267Z,0
2018-07-17T00:26:24.518Z,0
2018-07-17T00:27:23.977Z,0
2018-07-17T00:28:23.708Z,0
2018-07-17T00:29:24.480Z,0
2018-07-17T00:30:24.228Z,0
2018-07-17T00:31:23.937Z,0
2018-07-17T00:32:24.184Z,0
2018-07-17T00:33:24.458Z,0
2018-07-17T00:34:24.169Z,0
2018-07-17T00:35:24.425Z,0
2018-07-17T00:36:23.624Z,0
2018-07-17T00:37:23.875Z,0
2018-07-17T00:38:23.867Z,0
2018-07-17T00:39:23.859Z,0
2018-07-17T00:40:23.851Z,0
2018-07-17T00:41:24.092Z,0
2018-07-17T00:42:23.873Z,0
2018-07-17T00:43:24.347Z,0
2018-07-17T00:44:24.338Z,0
2018-07-17T00:45:23.790Z,0
2018-07-17T00:46:24.045Z,0
2018-07-17T00:47:24.311Z,0
2018-07-17T00:48:23.768Z,0
2018-07-17T00:49:24.016Z,0
2018-07-17T00:50:24.269Z,0
2018-07-17T00:51:23.474Z,0
2018-07-17T00:52:24.245Z,0
2018-07-17T00:53:23.720Z,0
2018-07-17T00:54:24.242Z,0
2018-07-17T00:55:24.221Z,0
2018-07-17T00:56:23.677Z,0
2018-07-17T00:57:23.673Z,0
2018-07-17T00:58:23.913Z,0
2018-07-17T00:59:23.905Z,0
2018-07-17T01:00:24.162Z,0
2018-07-17T01:01:24.174Z,0
2018-07-17T01:02:23.616Z,0
2018-07-17T01:03:23.861Z,0
2018-07-17T01:04:23.862Z,0
2018-07-17T01:05:23.845Z,0
2018-07-17T01:06:24.155Z,0
2018-07-17T01:07:23.923Z,0
2018-07-17T01:08:23.814Z,0
2018-07-17T01:09:24.071Z,0
2018-07-17T01:10:23.793Z,0
2018-07-17T01:11:23.790Z,0
2018-07-17T01:12:23.778Z,0
2018-07-17T01:13:23.763Z,0
2018-07-17T01:14:23.747Z,0
2018-07-17T01:15:23.740Z,0
2018-07-17T01:16:23.471Z,0
2018-07-17T01:17:23.990Z,0
2018-07-17T01:18:23.971Z,0
2018-07-17T01:19:23.704Z,0
2018-07-17T01:20:23.423Z,0
2018-07-17T01:21:23.674Z,0
2018-07-17T01:22:23.677Z,0
2018-07-17T01:23:23.394Z,0
2018-07-17T01:24:23.914Z,0
2018-07-17T01:25:23.105Z,0
2018-07-17T01:26:23.880Z,0
2018-07-17T01:27:23.617Z,0
2018-07-17T01:28:23.871Z,0
2018-07-17T01:29:23.326Z,0
2018-07-17T01:30:23.581Z,0
2018-07-17T01:31:23.039Z,0
2018-07-17T01:32:23.304Z,0
2018-07-17T01:33:23.281Z,0
2018-07-17T01:34:23.813Z,0
2018-07-17T01:35:23.519Z,0
2018-07-17T01:36:23.512Z,0
2018-07-17T01:37:23.506Z,0
2018-07-17T01:38:23.548Z,0
2018-07-17T01:39:23.214Z,0
2018-07-17T01:40:23.204Z,0
2018-07-17T01:41:23.199Z,0
2018-07-17T01:42:23.445Z,0
2018-07-17T01:43:23.434Z,0
2018-07-17T01:44:22.901Z,0
2018-07-17T01:45:23.413Z,0
2018-07-17T01:46:23.400Z,0
2018-07-17T01:47:23.396Z,0
2018-07-17T01:48:23.117Z,0
2018-07-17T01:49:23.102Z,0
2018-07-17T01:50:23.092Z,0
2018-07-17T01:51:23.614Z,0
2018-07-17T01:52:23.071Z,0
2018-07-17T01:53:23.596Z,0
2018-07-17T01:54:23.306Z,0
2018-07-17T01:55:23.510Z,0
2018-07-17T01:56:23.559Z,0
2018-07-17T01:57:23.546Z,0
2018-07-17T01:58:23.006Z,0
2018-07-17T01:59:23.514Z,0
2018-07-17T02:00:23.389Z,0
2018-07-17T02:01:23.242Z,0
2018-07-17T02:02:23.226Z,0
2018-07-17T02:03:23.481Z,0
2018-07-17T02:04:23.463Z,0
2018-07-17T02:05:23.189Z,0
2018-07-17T02:06:23.180Z,0
2018-07-17T02:07:23.427Z,0
2018-07-17T02:08:22.894Z,0
2018-07-17T02:09:23.403Z,0
2018-07-17T02:10:23.126Z,0
2018-07-17T02:11:23.124Z,0
2018-07-17T02:12:23.109Z,0
2018-07-17T02:13:23.103Z,0
2018-07-17T02:14:23.357Z,0
2018-07-17T02:15:23.080Z,0
2018-07-17T02:16:23.062Z,0
2018-07-17T02:17:23.317Z,0
2018-07-17T02:18:23.039Z,0
2018-07-17T02:19:22.774Z,0
2018-07-17T02:20:22.758Z,0
2018-07-17T02:21:22.742Z,0
2018-07-17T02:22:22.998Z,0
2018-07-17T02:23:22.716Z,0
2018-07-17T02:24:22.980Z,0
2018-07-17T02:25:23.225Z,0
2018-07-17T02:26:22.963Z,0
2018-07-17T02:27:23.219Z,0
2018-07-17T02:28:22.672Z,0
2018-07-17T02:29:22.970Z,0
2018-07-17T02:30:23.179Z,0
2018-07-17T02:31:22.370Z,0
2018-07-17T02:32:22.893Z,0
2018-07-17T02:33:23.148Z,0
2018-07-17T02:34:22.861Z,0
2018-07-17T02:35:22.858Z,0
2018-07-17T02:36:22.845Z,0
2018-07-17T02:37:22.886Z,0
2018-07-17T02:38:22.819Z,0
2018-07-17T02:39:23.071Z,0
2018-07-17T02:40:23.061Z,0
2018-07-17T02:41:22.519Z,0
2018-07-17T02:42:23.340Z,0
2018-07-17T02:43:22.780Z,0
2018-07-17T02:44:22.755Z,0
2018-07-17T02:45:23.008Z,0
2018-07-17T02:46:22.755Z,0
2018-07-17T02:47:22.983Z,0
2018-07-17T02:48:22.716Z,0
2018-07-17T02:49:22.701Z,0
2018-07-17T02:50:22.426Z,0
2018-07-17T02:51:22.416Z,0
2018-07-17T02:52:22.947Z,0
2018-07-17T02:53:22.644Z,0
2018-07-17T02:54:22.907Z,0
2018-07-17T02:55:22.624Z,0
2018-07-17T02:56:22.610Z,0
2018-07-17T02:57:22.881Z,0
2018-07-17T02:58:22.592Z,4
2018-07-17T02:59:22.308Z,4
2018-07-17T03:00:22.565Z,4
2018-07-17T03:01:22.560Z,0
2018-07-17T03:02:22.287Z,4
2018-07-17T03:03:22.534Z,4
2018-07-17T03:04:22.513Z,4
2018-07-17T03:05:22.499Z,4
2018-07-17T03:06:22.764Z,8
2018-07-17T03:07:22.489Z,8
2018-07-17T03:08:22.472Z,8
2018-07-17T03:09:22.188Z,12
2018-07-17T03:10:22.704Z,12
2018-07-17T03:11:22.438Z,12
2018-07-17T03:12:22.435Z,12
2018-07-17T03:13:22.753Z,16
2018-07-17T03:14:22.410Z,20
2018-07-17T03:15:22.393Z,20
2018-07-17T03:16:22.385Z,24
2018-07-17T03:17:22.381Z,28
2018-07-17T03:18:22.627Z,24
2018-07-17T03:19:22.636Z,28
2018-07-17T03:20:22.602Z,36
2018-07-17T03:21:22.331Z,36
2018-07-17T03:22:22.576Z,40
2018-07-17T03:23:22.559Z,48
2018-07-17T03:24:22.276Z,52
2018-07-17T03:25:22.275Z,56
2018-07-17T03:26:22.271Z,64
2018-07-17T03:27:22.514Z,68
2018-07-17T03:28:22.510Z,76
2018-07-17T03:29:22.490Z,80
2018-07-17T03:30:22.214Z,88
2018-07-17T03:31:22.203Z,100
2018-07-17T03:32:22.187Z,108
2018-07-17T03:33:21.930Z,116
2018-07-17T03:34:22.434Z,124
2018-07-17T03:35:21.630Z,136
2018-07-17T03:36:22.161Z,144
2018-07-17T03:37:22.126Z,152
2018-07-17T03:38:22.127Z,164
2018-07-17T03:39:22.381Z,172
2018-07-17T03:40:22.094Z,184
2018-07-17T03:41:21.822Z,192
2018-07-17T03:42:22.344Z,204
2018-07-17T03:43:22.315Z,216
2018-07-17T03:44:22.046Z,224
2018-07-17T03:45:21.770Z,236
2018-07-17T03:46:21.767Z,244
2018-07-17T03:47:22.013Z,260
2018-07-17T03:48:22.005Z,272
2018-07-17T03:49:21.983Z,284
2018-07-17T03:50:22.236Z,300
2018-07-17T03:51:22.008Z,312
2018-07-17T03:52:22.006Z,324
2018-07-17T03:53:21.692Z,344
2018-07-17T03:54:21.927Z,360
2018-07-17T03:55:21.916Z,384
2018-07-17T03:56:21.635Z,404
2018-07-17T03:57:21.891Z,428
2018-07-17T03:58:21.887Z,452
2018-07-17T03:59:22.137Z,472
2018-07-17T04:00:22.123Z,488
2018-07-17T04:01:21.584Z,516
2018-07-17T04:02:22.106Z,536
2018-07-17T04:03:22.084Z,556
2018-07-17T04:04:22.406Z,576
2018-07-17T04:05:21.804Z,596
2018-07-17T04:06:21.529Z,616
2018-07-17T04:07:21.772Z,640
2018-07-17T04:08:21.236Z,656
2018-07-17T04:09:22.015Z,672
2018-07-17T04:10:22.011Z,688
2018-07-17T04:11:21.784Z,704
2018-07-17T04:12:21.723Z,716
2018-07-17T04:13:22.145Z,736
2018-07-17T04:14:21.165Z,748
2018-07-17T04:15:21.946Z,760
2018-07-17T04:16:21.940Z,772
2018-07-17T04:17:21.662Z,784
2018-07-17T04:18:21.906Z,804
2018-07-17T04:19:21.894Z,816
2018-07-17T04:20:21.629Z,832
2018-07-17T04:21:21.891Z,844
2018-07-17T04:22:21.346Z,860
2018-07-17T04:23:21.855Z,876
2018-07-17T04:24:21.582Z,888
2018-07-17T04:25:21.303Z,904
2018-07-17T04:26:21.288Z,920
2018-07-17T04:27:21.804Z,936
2018-07-17T04:28:21.792Z,956
2018-07-17T04:29:21.516Z,976
2018-07-17T04:30:21.505Z,992
2018-07-17T04:31:21.761Z,1008
2018-07-17T04:32:21.490Z,1024
2018-07-17T04:33:21.265Z,1040
2018-07-17T04:34:21.461Z,1052
2018-07-17T04:35:21.185Z,1072
2018-07-17T04:36:21.426Z,1092
2018-07-17T04:37:21.679Z,1108
2018-07-17T04:38:21.239Z,1128
2018-07-17T04:39:21.664Z,1148
2018-07-17T04:40:21.391Z,1168
2018-07-17T04:41:21.640Z,1188
2018-07-17T04:42:21.367Z,1204
2018-07-17T04:43:21.085Z,1220
2018-07-17T04:44:21.874Z,1236
2018-07-17T04:45:21.651Z,1252
2018-07-17T04:46:21.066Z,1264
2018-07-17T04:47:21.299Z,1280
2018-07-17T04:48:21.300Z,1300
2018-07-17T04:49:21.280Z,1312
2018-07-17T04:50:21.545Z,1328
2018-07-17T04:51:20.730Z,1336
2018-07-17T04:52:21.251Z,1352
2018-07-17T04:53:21.504Z,1364
2018-07-17T04:54:21.245Z,1376
2018-07-17T04:55:20.949Z,1396
2018-07-17T04:56:20.939Z,1416
2018-07-17T04:57:21.200Z,1440
2018-07-17T04:58:21.171Z,1468
2018-07-17T04:59:21.435Z,1488
2018-07-17T05:00:21.429Z,1508
2018-07-17T05:01:21.146Z,1528
2018-07-17T05:02:21.141Z,1544
2018-07-17T05:03:21.119Z,1568
2018-07-17T05:04:21.113Z,1588
2018-07-17T05:05:21.372Z,1604
2018-07-17T05:06:21.365Z,1620
2018-07-17T05:07:20.821Z,1636
2018-07-17T05:08:21.067Z,1648
2018-07-17T05:09:21.057Z,1652
2018-07-17T05:10:21.325Z,1660
2018-07-17T05:11:21.036Z,1676
2018-07-17T05:12:20.759Z,1696
2018-07-17T05:13:21.282Z,1720
2018-07-17T05:14:21.005Z,1732
2018-07-17T05:15:20.993Z,1744
2018-07-17T05:16:21.144Z,1756
2018-07-17T05:17:20.972Z,1760
2018-07-17T05:18:21.229Z,1756
2018-07-17T05:19:20.955Z,1748
2018-07-17T05:20:21.200Z,1744
2018-07-17T05:21:20.983Z,1748
2018-07-17T05:22:20.911Z,1752
2018-07-17T05:23:20.642Z,1760
2018-07-17T05:24:21.165Z,1768
2018-07-17T05:25:20.880Z,1776
2018-07-17T05:26:20.892Z,1792
2018-07-17T05:27:21.125Z,1812
2018-07-17T05:28:21.118Z,1832
2018-07-17T05:29:20.836Z,1840
2018-07-17T05:30:20.827Z,1848
2018-07-17T05:31:20.820Z,1868
2018-07-17T05:32:20.797Z,1896
2018-07-17T05:33:20.811Z,1928
2018-07-17T05:34:20.516Z,1964
2018-07-17T05:35:21.120Z,2000
2018-07-17T05:36:20.533Z,2032
2018-07-17T05:37:20.756Z,2072
2018-07-17T05:38:20.475Z,2116
2018-07-17T05:39:20.206Z,2184
2018-07-17T05:40:20.988Z,2284
2018-07-17T05:41:20.973Z,2424
2018-07-17T05:42:20.696Z,2612
2018-07-17T05:43:21.074Z,2860
2018-07-17T05:44:20.707Z,3128
2018-07-17T05:45:20.668Z,3424
2018-07-17T05:46:20.689Z,3724
2018-07-17T05:47:20.378Z,4020
2018-07-17T05:48:20.373Z,4280
2018-07-17T05:49:20.624Z,4416
2018-07-17T05:50:20.642Z,4380
2018-07-17T05:51:20.601Z,4264
2018-07-17T05:52:20.602Z,4096
2018-07-17T05:53:20.311Z,3900
2018-07-17T05:54:20.309Z,3756
2018-07-17T05:55:20.308Z,3684
2018-07-17T05:56:20.292Z,3676
2018-07-17T05:57:20.547Z,3644
2018-07-17T05:58:20.538Z,3652
2018-07-17T05:59:20.536Z,3716
2018-07-17T06:00:20.785Z,3736
2018-07-17T06:01:20.701Z,3712
2018-07-17T06:02:20.229Z,3720
2018-07-17T06:03:20.600Z,3680
2018-07-17T06:04:20.494Z,3536
2018-07-17T06:05:20.202Z,3264
2018-07-17T06:06:20.196Z,2940
2018-07-17T06:07:20.445Z,2648
2018-07-17T06:08:20.214Z,2460
2018-07-17T06:09:20.168Z,2408
2018-07-17T06:10:20.254Z,2416
2018-07-17T06:11:20.692Z,2376
2018-07-17T06:12:20.396Z,2356
2018-07-17T06:13:20.446Z,2332
2018-07-17T06:14:20.381Z,2324
2018-07-17T06:15:20.109Z,2328
2018-07-17T06:16:20.112Z,2340
2018-07-17T06:17:20.615Z,2376
2018-07-17T06:18:20.426Z,2644
2018-07-17T06:19:20.377Z,3944
2018-07-17T06:20:20.071Z,5212
2018-07-17T06:21:20.583Z,5508
2018-07-17T06:22:20.477Z,5052
2018-07-17T06:23:19.778Z,4928
2018-07-17T06:24:20.312Z,2644
2018-07-17T06:25:20.391Z,2528
2018-07-17T06:26:20.008Z,2616
2018-07-17T06:27:20.558Z,2576
2018-07-17T06:28:20.250Z,2568
2018-07-17T06:29:19.721Z,2556
2018-07-17T06:30:19.979Z,2544
2018-07-17T06:31:20.228Z,2532
2018-07-17T06:32:20.224Z,2516
2018-07-17T06:33:20.542Z,2512
2018-07-17T06:34:20.210Z,2512
2018-07-17T06:35:20.191Z,2516
2018-07-17T06:36:20.456Z,2532
2018-07-17T06:37:20.187Z,2552
2018-07-17T06:38:20.171Z,2568
2018-07-17T06:39:20.169Z,2576
2018-07-17T06:40:19.881Z,2568
2018-07-17T06:41:20.407Z,2564
2018-07-17T06:42:20.400Z,2564
2018-07-17T06:43:20.388Z,2572
2018-07-17T06:44:19.851Z,2584
2018-07-17T06:45:19.851Z,2612
2018-07-17T06:46:20.099Z,2616
2018-07-17T06:47:20.091Z,2628
2018-07-17T06:48:20.082Z,2632
2018-07-17T06:49:20.344Z,2656
2018-07-17T06:50:20.799Z,2680
2018-07-17T06:51:19.795Z,2704
2018-07-17T06:52:20.312Z,2724
2018-07-17T06:53:19.774Z,2736
2018-07-17T06:54:20.029Z,2760
2018-07-17T06:55:20.023Z,2784
2018-07-17T06:56:20.017Z,2788
2018-07-17T06:57:20.339Z,2808
2018-07-17T06:58:19.996Z,2844
2018-07-17T06:59:20.253Z,2892
2018-07-17T07:00:19.979Z,2996
2018-07-17T07:01:19.972Z,3088
2018-07-17T07:02:19.694Z,3152
2018-07-17T07:03:20.222Z,3192
2018-07-17T07:04:19.681Z,3212
2018-07-17T07:05:20.128Z,3220
2018-07-17T07:06:19.933Z,3208
2018-07-17T07:07:20.188Z,3192
2018-07-17T07:08:19.911Z,3160
2018-07-17T07:09:19.902Z,3152
2018-07-17T07:10:20.168Z,3156
2018-07-17T07:11:20.426Z,3172
2018-07-17T07:12:19.621Z,3200
2018-07-17T07:13:19.609Z,3244
2018-07-17T07:14:19.599Z,3272
2018-07-17T07:15:19.861Z,3312
2018-07-17T07:16:20.111Z,3348
2018-07-17T07:17:19.585Z,3368
2018-07-17T07:18:19.571Z,3404
2018-07-17T07:19:19.566Z,3444
2018-07-17T07:20:20.085Z,3480
2018-07-17T07:21:19.826Z,3528
2018-07-17T07:22:19.797Z,3568
2018-07-17T07:23:19.645Z,3592
2018-07-17T07:24:19.519Z,3616
2018-07-17T07:25:20.041Z,3656
2018-07-17T07:26:19.771Z,3672
2018-07-17T07:27:20.018Z,3696
2018-07-17T07:28:19.486Z,3736
2018-07-17T07:29:19.227Z,3776
2018-07-17T07:30:19.737Z,3824
2018-07-17T07:31:19.731Z,3860
2018-07-17T07:32:19.462Z,3900
2018-07-17T07:33:19.713Z,3956
2018-07-17T07:34:19.457Z,7084
2018-07-17T07:35:19.700Z,22688
2018-07-17T07:36:19.692Z,30720
2018-07-17T07:37:19.478Z,31392
2018-07-17T07:38:19.948Z,34880
2018-07-17T07:39:19.680Z,37824
2018-07-17T07:40:19.662Z,37696
2018-07-17T07:41:19.979Z,35808
2018-07-17T07:42:19.128Z,34848
2018-07-17T07:43:19.650Z,34464
2018-07-17T07:44:19.383Z,33504
2018-07-17T07:45:19.637Z,32288
2018-07-17T07:46:19.902Z,33056
2018-07-17T07:47:19.632Z,34976
2018-07-17T07:48:19.370Z,34496
2018-07-17T07:49:19.916Z,32640
2018-07-17T07:50:19.885Z,33184
2018-07-17T07:51:19.626Z,36448
2018-07-17T07:52:19.884Z,39232
2018-07-17T07:53:19.348Z,40992
2018-07-17T07:54:19.344Z,40736
2018-07-17T07:55:19.876Z,38272
2018-07-17T07:56:19.880Z,35136
2018-07-17T07:57:19.335Z,31904
2018-07-17T07:58:19.617Z,31712
2018-07-17T07:59:19.672Z,35200
2018-07-17T08:00:19.611Z,39840
2018-07-17T08:01:19.799Z,42144
2018-07-17T08:02:19.608Z,41696
2018-07-17T08:03:19.869Z,40288
2018-07-17T08:04:19.336Z,40896
2018-07-17T08:05:19.333Z,41088
2018-07-17T08:06:19.902Z,40000
2018-07-17T08:07:19.063Z,39648
2018-07-17T08:08:19.856Z,40864
2018-07-17T08:09:19.323Z,42560
2018-07-17T08:10:19.599Z,43168
2018-07-17T08:11:19.856Z,41760
2018-07-17T08:12:19.847Z,40256
2018-07-17T08:13:19.857Z,39904
2018-07-17T08:14:19.334Z,40000
2018-07-17T08:15:19.595Z,39616
2018-07-17T08:16:19.329Z,40256
2018-07-17T08:17:19.590Z,42464
2018-07-17T08:18:19.596Z,43840
2018-07-17T08:19:19.333Z,43392
2018-07-17T08:20:19.602Z,41184
2018-07-17T08:21:19.346Z,40928
2018-07-17T08:22:19.605Z,42336
2018-07-17T08:23:19.607Z,44320
2018-07-17T08:24:19.786Z,46176
2018-07-17T08:25:19.342Z,44736
2018-07-17T08:26:19.881Z,41056
2018-07-17T08:27:19.346Z,15968
2018-07-17T08:28:19.872Z,11100
2018-07-17T08:29:19.876Z,8588
2018-07-17T08:30:19.351Z,7248
2018-07-17T08:31:19.351Z,11160
2018-07-17T08:33:19.884Z,11144
2018-07-17T08:34:19.613Z,10420
2018-07-17T08:35:19.619Z,10900
2018-07-17T08:36:19.882Z,11680
2018-07-17T08:37:19.889Z,17792
2018-07-17T08:38:19.612Z,25248
2018-07-17T08:39:19.081Z,35328
2018-07-17T08:40:19.896Z,40160
2018-07-17T08:41:19.342Z,30464
2018-07-17T08:42:19.612Z,23872
2018-07-17T08:43:20.140Z,15664
2018-07-17T08:44:19.874Z,9292
2018-07-17T08:45:19.874Z,9144
2018-07-17T08:46:19.876Z,9736
2018-07-17T08:47:19.605Z,11724
2018-07-17T08:48:19.602Z,9580
2018-07-17T08:49:19.865Z,9760
2018-07-17T08:50:19.592Z,10088
2018-07-17T08:51:19.595Z,10480
2018-07-17T08:52:19.600Z,10800
2018-07-17T08:53:19.328Z,11140
2018-07-17T08:54:19.592Z,11680
2018-07-17T08:55:19.325Z,11424
2018-07-17T08:56:19.327Z,11040
2018-07-17T08:57:19.904Z,11432
2018-07-17T08:58:19.589Z,11900
2018-07-17T08:59:19.581Z,13004
2018-07-17T09:00:19.626Z,12716
2018-07-17T09:01:19.049Z,14972
2018-07-17T09:02:19.585Z,16152
2018-07-17T09:03:19.568Z,22112
2018-07-17T09:04:19.564Z,16160
2018-07-17T09:05:19.568Z,25024
2018-07-17T09:06:19.831Z,31776
2018-07-17T09:07:19.354Z,44704
2018-07-17T09:08:19.829Z,44448
2018-07-17T09:09:19.563Z,33344
2018-07-17T09:10:19.555Z,46752
2018-07-17T09:11:19.285Z,46336
2018-07-17T09:12:19.287Z,20576
2018-07-17T09:13:19.648Z,19520
2018-07-17T09:14:19.549Z,19840
2018-07-17T09:15:19.549Z,18400
2018-07-17T09:16:19.274Z,18880
2018-07-17T09:17:19.555Z,18528
2018-07-17T09:18:19.808Z,19744
2018-07-17T09:19:19.538Z,15456
2018-07-17T09:20:19.541Z,12968
2018-07-17T09:21:19.806Z,12340
2018-07-17T09:22:19.627Z,14880
2018-07-17T09:23:19.805Z,13008
2018-07-17T09:24:19.261Z,13636
2018-07-17T09:25:19.524Z,13404
2018-07-17T09:26:18.993Z,19232
2018-07-17T09:27:19.518Z,19168
2018-07-17T09:28:19.398Z,37312
2018-07-17T09:29:19.796Z,21728
2018-07-17T09:30:19.791Z,42784
2018-07-17T09:31:19.252Z,48320
2018-07-17T09:32:19.257Z,50240
2018-07-17T09:33:19.826Z,20800
2018-07-17T09:34:19.252Z,22112
2018-07-17T09:35:19.519Z,20320
2018-07-17T09:36:19.239Z,18560
2018-07-17T09:37:19.500Z,18560
2018-07-17T09:38:19.505Z,23680
2018-07-17T09:39:19.512Z,15520
2018-07-17T09:40:19.497Z,14612
2018-07-17T09:41:19.501Z,14452
2018-07-17T09:42:19.769Z,14460
2018-07-17T09:43:19.757Z,14684
2018-07-17T09:44:19.305Z,14808
2018-07-17T09:45:19.224Z,15164
2018-07-17T09:46:19.223Z,15556
2018-07-17T09:47:19.747Z,16424
2018-07-17T09:48:19.211Z,17472
2018-07-17T09:49:19.474Z,18016
2018-07-17T09:50:19.470Z,17408
2018-07-17T09:51:19.470Z,16928
2018-07-17T09:52:19.735Z,16928
2018-07-17T09:53:19.473Z,16448
2018-07-17T09:54:18.941Z,19936
2018-07-17T09:55:19.455Z,19232
2018-07-17T09:56:19.722Z,25120
2018-07-17T09:57:19.719Z,18784
2018-07-17T09:58:19.191Z,23200
2018-07-17T09:59:19.446Z,21600
2018-07-17T10:00:19.447Z,18336
2018-07-17T10:01:19.647Z,17824
2018-07-17T10:02:19.173Z,17160
2018-07-17T10:03:19.169Z,17064
2018-07-17T10:04:19.450Z,16892
2018-07-17T10:05:19.177Z,16916
2018-07-17T10:06:19.206Z,17120
2018-07-17T10:07:19.754Z,17856
2018-07-17T10:08:19.169Z,18560
2018-07-17T10:09:19.428Z,18944
2018-07-17T10:10:19.428Z,18752
2018-07-17T10:11:19.422Z,17560
2018-07-17T10:12:19.683Z,17388
2018-07-17T10:13:19.682Z,16640
2018-07-17T10:14:19.677Z,16120
2018-07-17T10:15:19.673Z,21696
2018-07-17T10:16:19.428Z,40064
2018-07-17T10:17:19.409Z,18092
2018-07-17T10:18:19.417Z,19136
2018-07-17T10:19:19.663Z,24576
2018-07-17T10:20:19.179Z,14100
2018-07-17T10:21:19.140Z,22368
2018-07-17T10:22:19.132Z,19232
2018-07-17T10:23:19.391Z,26336
2018-07-17T10:24:19.144Z,28096
2018-07-17T10:25:19.167Z,23744
2018-07-17T10:26:19.570Z,63456
2018-07-17T10:27:19.385Z,62400
2018-07-17T10:28:19.382Z,26848
2018-07-17T10:29:19.418Z,71392
2018-07-17T10:30:19.650Z,53504
2018-07-17T10:31:19.638Z,65280
2018-07-17T10:32:19.632Z,62304
2018-07-17T10:33:19.108Z,60256
2018-07-17T10:34:19.382Z,63648
2018-07-17T10:35:19.640Z,67328
2018-07-17T10:36:19.373Z,71008
2018-07-17T10:37:19.386Z,75968
2018-07-17T10:38:19.378Z,80480
2018-07-17T10:39:19.381Z,81248
2018-07-17T10:40:19.116Z,79136
2018-07-17T10:41:18.863Z,75328
2018-07-17T10:42:19.382Z,72352
2018-07-17T10:43:19.660Z,70976
2018-07-17T10:44:19.392Z,71072
2018-07-17T10:45:19.661Z,75232
2018-07-17T10:46:19.402Z,79776
2018-07-17T10:47:19.404Z,83168
2018-07-17T10:48:19.141Z,86944
2018-07-17T10:49:19.404Z,88256
2018-07-17T10:50:19.151Z,86560
2018-07-17T10:51:19.685Z,87552
2018-07-17T10:52:18.892Z,85056
2018-07-17T10:53:18.894Z,80736
2018-07-17T10:54:19.434Z,78432
2018-07-17T10:55:19.189Z,75584
2018-07-17T10:56:19.464Z,70208
2018-07-17T10:57:19.468Z,65376
2018-07-17T10:58:19.196Z,61600
2018-07-17T10:59:19.187Z,62592
2018-07-17T11:00:19.190Z,70240
2018-07-17T11:01:19.472Z,76448
2018-07-17T11:02:19.740Z,82752
2018-07-17T11:03:19.486Z,85344
2018-07-17T11:04:19.224Z,84864
2018-07-17T11:05:19.757Z,80960
2018-07-17T11:06:19.499Z,75584
2018-07-17T11:07:19.499Z,73344
2018-07-17T11:08:19.343Z,44992
2018-07-17T11:09:19.506Z,45440
2018-07-17T11:10:19.519Z,71520
2018-07-17T11:11:19.252Z,43200
2018-07-17T11:12:19.527Z,23648
2018-07-17T11:13:19.527Z,88544
2018-07-17T11:14:19.533Z,86432
2018-07-17T11:15:19.004Z,85440
2018-07-17T11:16:19.280Z,79008
2018-07-17T11:17:19.810Z,78688
2018-07-17T11:18:19.809Z,70880
2018-07-17T11:19:19.553Z,66624
2018-07-17T11:20:19.831Z,64992
2018-07-17T11:21:19.318Z,68864
2018-07-17T11:22:19.837Z,35328
2018-07-17T11:23:19.575Z,33600
2018-07-17T11:24:19.575Z,59104
2018-07-17T11:25:19.326Z,55520
2018-07-17T11:26:19.603Z,54272
2018-07-17T11:27:19.597Z,69344
2018-07-17T11:28:19.870Z,64800
2018-07-17T11:29:19.613Z,66880
2018-07-17T11:30:19.898Z,73376
2018-07-17T11:31:19.626Z,67008
2018-07-17T11:32:19.636Z,75968
2018-07-17T11:33:19.627Z,83392
2018-07-17T11:34:19.906Z,86240
2018-07-17T11:35:19.900Z,82400
2018-07-17T11:36:19.376Z,80160
2018-07-17T11:37:19.656Z,74528
2018-07-17T11:38:19.661Z,68544
2018-07-17T11:39:19.669Z,66592
2018-07-17T11:40:19.398Z,59744
2018-07-17T11:41:19.409Z,49600
2018-07-17T11:42:19.938Z,26272
2018-07-17T11:43:19.683Z,26688
2018-07-17T11:44:19.424Z,47520
2018-07-17T11:45:19.686Z,20928
2018-07-17T11:46:19.699Z,63168
2018-07-17T11:47:19.448Z,76608
2018-07-17T11:48:19.457Z,78336
2018-07-17T11:49:19.709Z,75328
2018-07-17T11:50:19.727Z,76736
2018-07-17T11:51:19.467Z,72256
2018-07-17T11:52:19.725Z,67552
2018-07-17T11:53:19.904Z,66464
2018-07-17T11:54:20.021Z,68128
2018-07-17T11:55:19.734Z,66272
2018-07-17T11:56:20.013Z,65088
2018-07-17T11:57:20.018Z,64832
2018-07-17T11:58:19.759Z,67296
2018-07-17T11:59:20.145Z,70912
2018-07-17T12:00:20.050Z,73216
2018-07-17T12:01:19.713Z,74496
2018-07-17T12:02:20.053Z,78080
2018-07-17T12:03:19.538Z,80320
2018-07-17T12:04:19.791Z,83680
2018-07-17T12:05:19.808Z,83136
2018-07-17T12:06:19.805Z,79872
2018-07-17T12:07:19.550Z,74752
2018-07-17T12:08:19.909Z,67680
2018-07-17T12:09:20.081Z,61824
2018-07-17T12:10:20.097Z,57920
2018-07-17T12:11:19.304Z,57952
2018-07-17T12:12:19.843Z,63136
2018-07-17T12:13:19.863Z,70912
2018-07-17T12:14:19.588Z,76640
2018-07-17T12:15:20.136Z,81984
2018-07-17T12:16:19.603Z,84224
2018-07-17T12:17:19.878Z,84320
2018-07-17T12:18:19.870Z,83008
2018-07-17T12:19:19.621Z,82272
2018-07-17T12:20:20.399Z,83680
2018-07-17T12:21:20.159Z,81856
2018-07-17T12:22:19.643Z,77408
2018-07-17T12:23:19.644Z,72128
2018-07-17T12:24:20.178Z,68768
2018-07-17T12:25:20.186Z,67680
2018-07-17T12:26:19.404Z,51616
2018-07-17T12:27:19.682Z,58496
2018-07-17T12:28:19.685Z,59584
2018-07-17T12:29:20.209Z,45632
2018-07-17T12:30:19.972Z,62976
2018-07-17T12:31:19.956Z,71456
2018-07-17T12:32:20.233Z,78400
2018-07-17T12:33:19.715Z,84096
2018-07-17T12:34:19.717Z,87648
2018-07-17T12:35:19.721Z,91072
2018-07-17T12:36:20.266Z,84672
2018-07-17T12:37:20.031Z,85120
2018-07-17T12:38:20.007Z,84640
2018-07-17T12:39:20.012Z,80672
2018-07-17T12:40:19.775Z,74080
2018-07-17T12:41:20.285Z,74336
2018-07-17T12:42:20.040Z,71936
2018-07-17T12:43:20.065Z,68736
2018-07-17T12:44:20.629Z,65536
2018-07-17T12:45:19.787Z,61472
2018-07-17T12:46:19.794Z,62400
2018-07-17T12:47:19.800Z,63392
2018-07-17T12:48:20.336Z,66208
2018-07-17T12:49:20.087Z,70400
2018-07-17T12:50:20.361Z,77440
2018-07-17T12:51:20.100Z,83616
2018-07-17T12:52:20.118Z,86720
2018-07-17T12:53:20.187Z,81056
2018-07-17T12:54:20.380Z,51392
2018-07-17T12:55:20.121Z,48832
2018-07-17T12:56:19.905Z,32960
2018-07-17T12:57:20.136Z,68384
2018-07-17T12:58:20.409Z,64672
2018-07-17T12:59:20.152Z,67744
2018-07-17T13:00:19.911Z,70848
2018-07-17T13:01:20.188Z,74848
2018-07-17T13:02:20.498Z,75968
2018-07-17T13:03:20.451Z,77152
2018-07-17T13:04:19.924Z,77856
2018-07-17T13:05:20.462Z,78336
2018-07-17T13:06:20.204Z,80512
2018-07-17T13:07:20.216Z,83712
2018-07-17T13:08:20.208Z,87328
2018-07-17T13:09:20.366Z,86400
2018-07-17T13:10:20.226Z,81792
2018-07-17T13:11:20.233Z,77408
2018-07-17T13:12:20.515Z,26624
2018-07-17T13:13:19.994Z,11536
2018-07-17T13:14:19.727Z,67424
2018-07-17T13:15:20.261Z,73952
2018-07-17T13:16:20.005Z,80352
2018-07-17T13:17:20.310Z,84736
2018-07-17T13:18:20.283Z,90208
2018-07-17T13:19:20.293Z,92512
2018-07-17T13:20:20.289Z,92512
2018-07-17T13:21:20.295Z,91488
2018-07-17T13:22:20.334Z,90144
2018-07-17T13:23:20.320Z,91712
2018-07-17T13:24:20.065Z,97120
2018-07-17T13:25:20.337Z,97760
2018-07-17T13:26:20.332Z,94112
2018-07-17T13:27:20.599Z,88640
2018-07-17T13:28:20.617Z,80960
2018-07-17T13:29:20.406Z,77280
2018-07-17T13:30:20.088Z,73568